Flight Track Log - Related Links

Times and Time Zones

All times are in EDT time to prevent confusion due to time zone crossing. See the EMD21 flight status page for this flight to view local times or setup timezone preferences in your user account.

Time Position Orientation Groundspeed Altitude Reporting Facility
EDT Latitude Longitude Course Direction KTS MPH feet Rate Location/Type
Mon 07:43:11 PM 37.6728 -97.4147 24° Northeast 139 160 1,800  Level Kansas City Center
Mon 07:44:30 PM 37.7247 -97.3856 24° Northeast 158 182 3,600 1,357 Climbing Kansas City Center
Mon 07:45:06 PM 37.7475 -97.3739 22° Northeast 160 184 4,400 1,644 Climbing Kansas City Center
Mon 07:45:43 PM 37.7772 -97.3642 14° North 165 190 5,600 1,548 Climbing Kansas City Center
Mon 07:46:08 PM 37.7894 -97.3589 19° North 156 180 6,000 1,200 Climbing Kansas City Center
Mon 07:46:43 PM 37.7819 -97.3264 106° East 150 173 6,800 1,161 Climbing Kansas City Center
Mon 07:47:10 PM 37.7706 -97.3211 160° South 160 184 7,200 1,079 Climbing Kansas City Center
Mon 07:48:12 PM 37.7272 -97.2986 158° South 166 191 8,400 1,306 Climbing Kansas City Center
Mon 07:49:14 PM 37.6744 -97.2672 155° Southeast 174 200 9,900 1,258 Climbing Kansas City Center
Mon 07:50:16 PM 37.6292 -97.2428 157° South 176 203 11,000 871 Climbing Kansas City Center
Mon 07:51:18 PM 37.5758 -97.2136 157° South 205 236 11,700 871 Climbing Kansas City Center
Mon 07:52:20 PM 37.5242 -97.1844 156° South 206 237 12,800 1,016 Climbing Kansas City Center
Mon 07:53:22 PM 37.4708 -97.1567 158° South 206 237 13,800 871 Climbing Kansas City Center
Mon 07:54:24 PM 37.4178 -97.1264 156° South 209 241 14,600 585 Climbing Kansas City Center
Mon 07:55:25 PM 37.3625 -97.0944 155° Southeast 216 249 15,000 195 Climbing Kansas City Center
Mon 07:56:27 PM 37.2969 -97.0639 160° South 240 276 15,000  Level Kansas City Center
Mon 07:57:29 PM 37.2186 -97.0214 157° South 253 291 15,000 -48 Level Kansas City Center
Mon 07:58:31 PM 37.1528 -96.9861 157° South 256 295 14,900  Descending Kansas City Center
Mon 07:59:33 PM 37.0864 -96.9519 158° South 258 297 15,000 48 Climbing Kansas City Center
Mon 08:00:35 PM 37.0211 -96.9139 155° Southeast 259 298 15,000  Level Kansas City Center
Mon 08:01:37 PM 36.9542 -96.8781 157° South 259 298 15,000  Level Kansas City Center
Mon 08:02:39 PM 36.8878 -96.8439 158° South 259 298 15,000  Level Kansas City Center
Mon 08:03:40 PM 36.8197 -96.8036 155° Southeast 257 296 15,000  Level Kansas City Center
Mon 08:04:42 PM 36.7531 -96.7686 157° South 259 298 15,000  Level Kansas City Center
Mon 08:05:44 PM 36.6728 -96.7256 157° South 261 300 15,000  Level Kansas City Center
Mon 08:06:46 PM 36.6053 -96.6883 156° South 264 304 15,000  Level Kansas City Center
Mon 08:07:47 PM 36.5381 -96.6536 157° South 262 302 15,000  Level Kansas City Center
Mon 08:08:49 PM 36.4703 -96.6175 157° South 263 303 15,000  Level Kansas City Center
Mon 08:09:38 PM 36.4078 -96.5853 157° South 262 302 15,000  Level Kansas City Center
Mon 08:10:39 PM 36.3422 -96.5492 156° South 261 300 15,000  Level Kansas City Center
Mon 08:11:40 PM 36.2744 -96.5161 159° South 262 302 15,000  Level Kansas City Center
Mon 08:12:40 PM 36.2067 -96.4803 157° South 261 300 15,000  Level Kansas City Center
Mon 08:12:56 PM 36.1897 -96.4689 152° Southeast 263 303 15,000  Level Kansas City Center
Mon 08:13:41 PM 36.1408 -96.4444 158° South 261 300 15,000  Level Kansas City Center
Mon 08:13:58 PM 36.1233 -96.4325 151° Southeast 261 300 15,000  Level Kansas City Center
Mon 08:14:47 PM 36.0642 -96.4022 158° South 263 303 15,000  Level Kansas City Center
Mon 08:16:01 PM 35.9883 -96.3614 156° South 263 303 15,000  Level Kansas City Center
Mon 08:17:03 PM 35.9197 -96.3258 157° South 265 305 15,000  Level Kansas City Center
Mon 08:18:04 PM 35.8531 -96.2903 157° South 263 303 15,000 -293 Level Kansas City Center
Mon 08:19:06 PM 35.7731 -96.2489 157° South 266 306 14,400 -677 Descending Kansas City Center
Mon 08:20:08 PM 35.6997 -96.2122 158° South 275 316 13,600 -683 Descending Kansas City Center
Mon 08:21:09 PM 35.6272 -96.1742 157° South 281 323 13,000 -732 Descending Kansas City Center
Mon 08:22:11 PM 35.5578 -96.1353 156° South 277 319 12,100 -927 Descending Kansas City Center
Mon 08:23:12 PM 35.4861 -96.0989 158° South 279 321 11,100 -976 Descending Kansas City Center
Mon 08:24:14 PM 35.4133 -96.0625 158° South 274 315 10,100 -1,052 Descending Kansas City Center
Mon 08:24:49 PM 35.3697 -96.0439 161° South 269 310 9,400 -947 Descending Fort Worth Center
Mon 08:25:49 PM 35.3067 -96.0069 154° Southeast 269 310 8,600 -900 Descending Fort Worth Center
Mon 08:26:49 PM 35.2436 -95.9747 157° South 259 298 7,600 -1,150 Descending Fort Worth Center
Mon 08:27:49 PM 35.1850 -95.9428 156° South 249 287 6,300 -1,200 Descending Fort Worth Center
Mon 08:29:34 PM 35.0792 -95.8878 157° South 227 261 4,300 -1,143 Descending Kansas City Center

Login

Don't have an account? Register now (free) for customized features, flight alerts, and more!